Time;durP1;ratioP1;P1;durP2;ratioP2;P2;SDS_P1;SDS_P2;PMS_P1;PMS_P2;Temp;Humidity;BMP_temperature;BMP_pressure;BME280_temperature;BME280_humidity;BME280_pressure;Samples;Min_cycle;Max_cycle;Signal;HPM_P1;HPM_P2
2022/03/08 00:01:41;;;;;;;5.32;1.67;;;;;;;18.87;28.78;102158.34;7313664;19;129341;-71
2022/03/08 00:04:08;;;;;;;5.50;2.08;;;;;;;18.85;28.45;102156.84;7314123;19;130345;-71
2022/03/08 00:06:35;;;;;;;3.65;1.75;;;;;;;18.83;28.73;102150.69;7310646;19;130988;-71
2022/03/08 00:09:02;;;;;;;2.63;1.50;;;;;;;18.82;28.65;102151.75;7313164;19;129937;-71
2022/03/08 00:11:29;;;;;;;1.98;1.48;;;;;;;18.80;28.56;102151.13;7314115;19;128899;-71
2022/03/08 00:13:55;;;;;;;3.28;1.88;;;;;;;18.77;28.26;102147.69;7312470;19;129998;-72
2022/03/08 00:16:22;;;;;;;3.22;1.80;;;;;;;18.75;28.68;102149.00;7314828;19;129527;-72
2022/03/08 00:18:49;;;;;;;5.07;1.83;;;;;;;18.73;28.50;102145.59;7311797;19;130184;-71
2022/03/08 00:21:17;;;;;;;3.88;1.75;;;;;;;18.71;28.41;102162.41;7314524;19;128912;-72
2022/03/08 00:23:45;;;;;;;3.13;1.92;;;;;;;18.69;28.44;102156.25;7313907;19;129686;-71
2022/03/08 00:26:11;;;;;;;2.83;1.70;;;;;;;18.68;28.42;102165.66;7314226;19;130854;-72
2022/03/08 00:28:38;;;;;;;3.47;1.90;;;;;;;18.66;28.58;102155.81;7314892;19;128839;-71
2022/03/08 00:31:05;;;;;;;3.15;1.70;;;;;;;18.64;28.48;102158.81;7312018;19;129683;-71
2022/03/08 00:33:32;;;;;;;3.00;1.77;;;;;;;18.63;28.25;102165.44;7313332;19;129563;-71
2022/03/08 00:35:59;;;;;;;2.20;1.55;;;;;;;18.59;28.60;102155.81;7318352;19;129914;-72
2022/03/08 00:38:26;;;;;;;3.40;1.83;;;;;;;18.58;28.46;102160.53;7325990;19;129318;-71
2022/03/08 00:40:53;;;;;;;4.20;1.77;;;;;;;18.56;28.54;102159.06;7327811;19;129858;-71
2022/03/08 00:43:20;;;;;;;4.53;1.98;;;;;;;18.55;28.55;102168.44;7328245;19;128758;-72
2022/03/08 00:45:47;;;;;;;1.95;1.45;;;;;;;18.53;28.13;102163.09;7332302;19;129989;-72
2022/03/08 00:48:14;;;;;;;6.07;2.38;;;;;;;18.51;28.09;102164.38;7342584;19;128517;-72
2022/03/08 00:50:41;;;;;;;3.20;1.65;;;;;;;18.50;28.05;102162.69;7348091;19;127610;-71
2022/03/08 00:53:08;;;;;;;2.90;1.88;;;;;;;18.48;28.45;102159.25;7350015;19;128244;-71
2022/03/08 00:55:35;;;;;;;2.55;1.70;;;;;;;18.47;28.06;102161.19;7347324;19;129364;-71
2022/03/08 00:58:04;;;;;;;3.38;1.80;;;;;;;18.46;28.32;102153.94;7354944;19;127650;-71
2022/03/08 01:00:33;;;;;;;3.00;1.83;;;;;;;18.43;28.15;102149.69;7357054;19;127772;-71
2022/03/08 01:03:00;;;;;;;3.42;1.92;;;;;;;18.42;28.40;102156.31;7353873;19;128404;-72
2022/03/08 01:05:28;;;;;;;2.78;1.83;;;;;;;18.41;28.22;102154.59;7354396;19;128929;-71
2022/03/08 01:07:55;;;;;;;3.72;1.80;;;;;;;18.40;28.38;102152.06;7356421;19;128213;-72
2022/03/08 01:10:23;;;;;;;3.15;1.83;;;;;;;18.39;28.39;102151.19;7354682;19;128822;-72
2022/03/08 01:12:52;;;;;;;3.60;1.80;;;;;;;18.37;28.12;102144.97;7356594;19;128885;-73
2022/03/08 01:15:21;;;;;;;5.50;1.80;;;;;;;18.36;28.19;102151.56;7354589;19;132058;-72
2022/03/08 01:17:48;;;;;;;2.47;1.67;;;;;;;18.35;28.07;102149.88;7355514;19;130451;-72
2022/03/08 01:20:15;;;;;;;3.22;1.67;;;;;;;18.34;27.99;102137.06;7356058;19;128684;-72
2022/03/08 01:22:43;;;;;;;4.68;1.90;;;;;;;18.32;28.41;102142.00;7354551;19;129377;-71
2022/03/08 01:25:14;;;;;;;4.93;1.77;;;;;;;18.32;27.87;102139.25;7354503;19;128174;-71
2022/03/08 01:27:42;;;;;;;2.72;1.60;;;;;;;18.31;27.93;102132.00;7355863;19;128076;-71
2022/03/08 01:30:12;;;;;;;5.63;1.75;;;;;;;18.28;28.25;102133.25;7352672;19;130269;-72
2022/03/08 01:32:39;;;;;;;2.17;1.63;;;;;;;18.27;27.83;102126.03;7355207;19;130524;-71
2022/03/08 01:35:07;;;;;;;4.00;1.80;;;;;;;18.27;28.13;102125.16;7352654;19;128275;-72
2022/03/08 01:37:34;;;;;;;4.10;1.77;;;;;;;18.24;27.84;102115.38;7354745;19;129316;-72
2022/03/08 01:40:02;;;;;;;3.00;1.95;;;;;;;18.23;28.16;102119.22;7355746;19;127964;-71
2022/03/08 01:42:28;;;;;;;3.15;1.80;;;;;;;18.21;28.19;102109.41;7353508;19;131235;-69
2022/03/08 01:44:55;;;;;;;3.50;1.85;;;;;;;18.20;28.14;102114.09;7356008;19;128237;-71
2022/03/08 01:47:24;;;;;;;3.38;1.92;;;;;;;18.19;27.70;102106.84;7353338;19;128105;-72
2022/03/08 01:49:52;;;;;;;2.95;1.80;;;;;;;18.19;27.69;102112.38;7353295;19;127620;-72
2022/03/08 01:52:23;;;;;;;2.88;1.83;;;;;;;18.19;27.62;102106.00;7354806;19;129739;-72
2022/03/08 01:54:50;;;;;;;2.75;1.67;;;;;;;18.17;27.96;102103.44;7352744;19;128791;-71
2022/03/08 01:57:25;;;;;;;3.08;2.03;;;;;;;18.16;27.91;102098.97;7355909;19;129068;-70
2022/03/08 01:59:53;;;;;;;2.58;1.52;;;;;;;18.15;27.63;102100.88;7355115;19;127831;-72
2022/03/08 02:02:21;;;;;;;3.55;1.75;;;;;;;18.14;27.56;102096.41;7353446;19;129257;-71
2022/03/08 02:04:49;;;;;;;3.60;1.85;;;;;;;18.13;27.77;102103.00;7353435;19;129185;-71
2022/03/08 02:07:16;;;;;;;2.50;1.60;;;;;;;18.13;27.29;102102.19;7351932;19;128093;-72
2022/03/08 02:09:43;;;;;;;3.55;1.80;;;;;;;18.13;27.57;102097.47;7351847;19;128442;-72
2022/03/08 02:12:10;;;;;;;3.45;2.00;;;;;;;18.11;27.63;102101.53;7355007;19;129473;-72
2022/03/08 02:14:37;;;;;;;6.35;2.10;;;;;;;18.11;27.20;102099.59;7352892;19;128966;-71
2022/03/08 02:17:05;;;;;;;4.25;1.75;;;;;;;18.10;27.23;102092.34;7354492;19;130606;-72
2022/03/08 02:19:32;;;;;;;4.93;1.60;;;;;;;18.10;27.53;102086.81;7352570;19;128764;-72
2022/03/08 02:21:58;;;;;;;3.10;2.05;;;;;;;18.09;27.22;102089.81;7353531;19;129468;-72
2022/03/08 02:24:25;;;;;;;2.75;1.98;;;;;;;18.07;27.31;102087.28;7354995;19;128607;-71
2022/03/08 02:26:52;;;;;;;3.17;1.80;;;;;;;18.06;27.43;102085.56;7352999;19;128047;-71
2022/03/08 02:29:19;;;;;;;4.18;2.17;;;;;;;18.05;27.11;102078.31;7353786;19;127604;-72
2022/03/08 02:31:47;;;;;;;4.47;2.10;;;;;;;18.04;27.44;102071.06;7351669;19;128292;-72
2022/03/08 02:34:15;;;;;;;3.53;1.83;;;;;;;18.02;27.19;102075.97;7353472;19;128334;-71
2022/03/08 02:37:08;;;;;;;2.78;2.15;;;;;;;18.04;26.89;102070.22;7354323;19;128582;-72
2022/03/08 02:39:36;;;;;;;2.90;2.13;;;;;;;18.02;27.16;102072.38;7351241;19;128778;-72
2022/03/08 02:42:03;;;;;;;3.50;2.25;;;;;;;18.00;27.27;102067.91;7352806;19;128298;-72
2022/03/08 02:44:30;;;;;;;3.10;1.75;;;;;;;17.98;27.19;102078.31;7320507;19;129061;-72
2022/03/08 02:47:01;;;;;;;5.95;2.30;;;;;;;17.96;27.15;102069.38;7318041;19;129201;-72
2022/03/08 02:49:28;;;;;;;3.03;1.90;;;;;;;17.96;26.96;102074.06;7318612;19;129995;-72
2022/03/08 02:51:56;;;;;;;2.47;1.85;;;;;;;17.94;27.19;102068.72;7316343;19;129965;-72
2022/03/08 02:54:24;;;;;;;3.95;2.50;;;;;;;17.94;27.30;102062.34;7316478;19;130547;-72
2022/03/08 02:56:51;;;;;;;2.85;1.90;;;;;;;17.92;27.32;102067.25;7319109;19;128756;-73
2022/03/08 02:59:21;;;;;;;3.17;2.00;;;;;;;17.91;27.20;102055.31;7316850;19;129085;-72
2022/03/08 03:01:49;;;;;;;3.33;1.92;;;;;;;17.90;27.18;102058.31;7319344;19;130702;-73
2022/03/08 03:04:16;;;;;;;4.95;2.30;;;;;;;17.88;26.88;102050.22;7313060;19;129906;-73
2022/03/08 03:06:43;;;;;;;4.47;2.50;;;;;;;17.87;26.74;102048.53;7317699;19;129979;-73
2022/03/08 03:09:10;;;;;;;3.42;1.77;;;;;;;17.87;26.76;102042.13;7317080;19;129622;-73
2022/03/08 03:11:37;;;;;;;2.92;2.13;;;;;;;17.85;27.08;102047.88;7316283;19;130052;-73
2022/03/08 03:14:04;;;;;;;2.22;2.00;;;;;;;17.84;26.88;102043.41;7317555;19;131152;-74
2022/03/08 03:16:31;;;;;;;4.72;2.13;;;;;;;17.84;26.64;102038.72;7314630;19;131646;-73
2022/03/08 03:18:58;;;;;;;4.68;2.47;;;;;;;17.83;26.96;102037.03;7315062;19;129016;-73
2022/03/08 03:21:24;;;;;;;5.35;2.67;;;;;;;17.81;27.06;102033.63;7316847;19;129501;-74
2022/03/08 03:23:51;;;;;;;3.60;2.05;;;;;;;17.81;26.86;102032.75;7315233;19;129522;-73
2022/03/08 03:26:18;;;;;;;8.77;2.58;;;;;;;17.80;26.86;102025.50;7317251;19;128937;-73
2022/03/08 03:28:44;;;;;;;3.35;2.05;;;;;;;17.79;26.54;102026.56;7314175;19;129782;-73
2022/03/08 03:31:11;;;;;;;4.13;2.38;;;;;;;17.78;26.43;102005.53;7315141;19;130245;-72
2022/03/08 03:33:38;;;;;;;3.25;2.28;;;;;;;17.76;26.72;102018.72;7317173;19;129730;-75
2022/03/08 03:36:05;;;;;;;4.35;2.20;;;;;;;17.75;26.79;102014.25;7314815;19;129632;-75
2022/03/08 03:38:32;;;;;;;3.85;2.53;;;;;;;17.74;26.45;102010.59;7313470;19;129009;-74
2022/03/08 03:40:59;;;;;;;3.95;2.40;;;;;;;17.72;26.65;102012.75;7314643;19;131208;-74
2022/03/08 03:43:25;;;;;;;3.90;2.28;;;;;;;17.71;26.37;102016.59;7314066;19;129556;-74
2022/03/08 03:45:52;;;;;;;3.33;2.17;;;;;;;17.70;26.72;102012.13;7316106;19;128717;-74
2022/03/08 03:48:19;;;;;;;4.07;2.28;;;;;;;17.67;26.65;102007.84;7313227;19;129796;-74
2022/03/08 03:50:49;;;;;;;3.25;1.88;;;;;;;17.67;26.37;102005.06;7313260;19;130301;-73
2022/03/08 03:53:16;;;;;;;3.78;2.20;;;;;;;17.66;26.45;101997.84;7313584;19;130876;-73
2022/03/08 03:55:42;;;;;;;4.05;1.92;;;;;;;17.65;26.66;102000.81;7314533;19;129167;-74
2022/03/08 03:58:09;;;;;;;4.68;2.15;;;;;;;17.66;26.58;102008.06;7314809;19;129681;-74
2022/03/08 04:00:36;;;;;;;3.55;1.92;;;;;;;17.65;26.61;102003.59;7313318;19;129627;-74
2022/03/08 04:03:03;;;;;;;5.28;1.88;;;;;;;17.63;26.61;101987.22;7313320;19;129632;-73
2022/03/08 04:05:30;;;;;;;2.85;1.98;;;;;;;17.62;26.50;102001.25;7314173;19;130869;-74
2022/03/08 04:07:57;;;;;;;4.38;2.30;;;;;;;17.62;26.17;101998.47;7311048;19;129957;-75
2022/03/08 04:10:24;;;;;;;3.85;2.20;;;;;;;17.60;26.48;102004.25;7311163;19;131039;-75
2022/03/08 04:12:51;;;;;;;2.88;2.13;;;;;;;17.59;26.26;102001.69;7311196;19;130036;-74
2022/03/08 04:15:17;;;;;;;3.67;2.10;;;;;;;17.58;26.06;101997.22;7314994;19;129517;-74
2022/03/08 04:17:44;;;;;;;3.38;2.00;;;;;;;17.58;26.48;101988.91;7315335;19;129369;-75
2022/03/08 04:20:11;;;;;;;1.90;1.70;;;;;;;17.57;26.56;101987.22;7313359;19;129532;-74
2022/03/08 04:22:38;;;;;;;3.30;1.88;;;;;;;17.57;26.07;101984.44;7315116;19;131518;-74
2022/03/08 04:25:06;;;;;;;4.00;2.03;;;;;;;17.55;26.62;101987.41;7313609;19;129918;-73
2022/03/08 04:27:33;;;;;;;3.00;2.10;;;;;;;17.54;26.23;101983.81;7323528;19;130131;-64
2022/03/08 04:30:00;;;;;;;3.22;1.80;;;;;;;17.53;26.24;101979.31;7350150;19;128275;-73
2022/03/08 04:32:27;;;;;;;3.42;1.92;;;;;;;17.53;26.72;101982.06;7358989;19;130037;-74
2022/03/08 04:34:53;;;;;;;3.33;2.08;;;;;;;17.53;26.32;101975.69;7365307;19;128911;-73
2022/03/08 04:37:20;;;;;;;2.95;1.90;;;;;;;17.51;26.26;101978.66;7362479;19;129486;-74
2022/03/08 04:39:47;;;;;;;3.38;1.92;;;;;;;17.51;26.57;101975.88;7363180;19;128871;-74
2022/03/08 04:42:13;;;;;;;2.67;2.13;;;;;;;17.52;26.53;101974.00;7364593;19;128506;-74
2022/03/08 04:44:40;;;;;;;4.10;1.80;;;;;;;17.50;26.31;101960.34;7363298;19;129365;-73
2022/03/08 04:47:07;;;;;;;4.10;1.95;;;;;;;17.50;26.30;101970.59;7365028;19;128088;-73
2022/03/08 04:49:34;;;;;;;4.57;2.05;;;;;;;17.49;26.13;101975.25;7361500;19;129151;-74
2022/03/08 04:52:00;;;;;;;3.28;1.92;;;;;;;17.51;26.14;101969.53;7363447;19;129006;-74
2022/03/08 04:54:27;;;;;;;4.65;2.10;;;;;;;17.57;25.92;101962.31;7364568;19;129723;-73
2022/03/08 04:56:54;;;;;;;2.88;1.63;;;;;;;17.66;26.12;101966.56;7362926;19;127668;-73
2022/03/08 04:59:21;;;;;;;3.47;2.03;;;;;;;17.80;25.73;101964.63;7363516;19;128225;-74
2022/03/08 05:01:49;;;;;;;3.20;1.92;;;;;;;18.02;25.76;101956.91;7361579;19;131465;-73
2022/03/08 05:04:16;;;;;;;5.40;1.95;;;;;;;18.29;25.41;101954.91;7362981;19;128135;-74
2022/03/08 05:06:43;;;;;;;2.47;1.45;;;;;;;18.64;25.04;101962.03;7364494;19;127810;-73
2022/03/08 05:09:10;;;;;;;2.60;1.60;;;;;;;19.00;25.17;101962.47;7360661;19;128250;-74
2022/03/08 05:11:36;;;;;;;3.72;1.70;;;;;;;19.35;24.80;101964.81;7361446;19;129657;-74
2022/03/08 05:14:04;;;;;;;2.28;1.70;;;;;;;19.69;24.34;101966.19;7361566;19;129144;-73
2022/03/08 05:16:31;;;;;;;2.53;1.80;;;;;;;20.01;23.99;101959.69;7362752;19;128086;-73
2022/03/08 05:18:57;;;;;;;2.33;1.48;;;;;;;20.23;23.93;101960.09;7364421;19;129448;-73
2022/03/08 05:21:24;;;;;;;3.38;1.88;;;;;;;20.41;23.57;101961.19;7361927;19;130998;-73
2022/03/08 05:23:51;;;;;;;1.75;1.42;;;;;;;20.52;23.67;101970.63;7363583;19;127659;-73
2022/03/08 05:26:18;;;;;;;3.10;1.83;;;;;;;20.56;23.50;101963.53;7344476;19;129026;-74
2022/03/08 05:28:46;;;;;;;2.30;1.60;;;;;;;20.59;23.35;101965.88;7326346;19;129659;-73
2022/03/08 05:31:13;;;;;;;1.73;1.40;;;;;;;20.55;23.15;101962.72;7324143;19;129708;-73
2022/03/08 05:33:41;;;;;;;3.13;1.73;;;;;;;20.50;23.56;101959.75;7326156;19;129625;-73
2022/03/08 05:36:08;;;;;;;2.85;1.48;;;;;;;20.45;23.53;101959.59;7327887;19;129868;-73
2022/03/08 05:38:35;;;;;;;2.25;1.60;;;;;;;20.38;23.46;101954.13;7324106;19;130124;-74
2022/03/08 05:41:01;;;;;;;3.03;1.77;;;;;;;20.31;23.23;101950.59;7325225;19;129849;-73
2022/03/08 05:43:28;;;;;;;3.72;1.58;;;;;;;20.22;23.40;101952.84;7320427;19;129222;-73
2022/03/08 05:45:55;;;;;;;2.53;1.50;;;;;;;20.14;23.24;101945.66;7317167;19;129013;-73
2022/03/08 05:48:22;;;;;;;2.85;1.60;;;;;;;20.07;23.62;101949.59;7319420;19;129497;-74
2022/03/08 05:50:49;;;;;;;3.83;1.65;;;;;;;19.98;23.66;101949.88;7315746;19;129531;-73
2022/03/08 05:53:16;;;;;;;3.15;1.58;;;;;;;19.90;23.62;101944.63;7317319;19;129161;-73
2022/03/08 05:55:43;;;;;;;2.92;1.95;;;;;;;19.82;23.40;101940.22;7319301;19;128909;-72
2022/03/08 05:58:09;;;;;;;2.17;1.58;;;;;;;19.75;23.88;101933.03;7315628;19;129685;-72
2022/03/08 06:00:36;;;;;;;2.67;1.70;;;;;;;19.66;23.88;101933.34;7316956;19;129852;-72
2022/03/08 06:03:03;;;;;;;3.08;1.65;;;;;;;19.58;24.01;101925.28;7318888;19;128998;-71
2022/03/08 06:05:30;;;;;;;2.22;1.70;;;;;;;19.51;23.87;101930.06;7315072;19;129482;-70
2022/03/08 06:07:57;;;;;;;1.83;1.50;;;;;;;19.44;24.00;101929.31;7317848;19;129608;-74
2022/03/08 06:10:24;;;;;;;5.40;1.73;;;;;;;19.37;24.18;101929.34;7314370;19;129753;-73
2022/03/08 06:12:50;;;;;;;3.08;1.70;;;;;;;19.29;23.82;101933.25;7316024;19;129005;-70
2022/03/08 06:15:17;;;;;;;5.55;1.70;;;;;;;19.22;23.94;101924.13;7316529;19;129288;-72
2022/03/08 06:17:44;;;;;;;4.35;1.83;;;;;;;19.16;24.39;101927.78;7314056;19;129477;-72
2022/03/08 06:20:11;;;;;;;5.30;1.65;;;;;;;19.11;24.35;101930.38;7316529;19;130111;-74
2022/03/08 06:22:38;;;;;;;8.43;2.28;;;;;;;19.08;24.31;101934.47;7314932;19;128755;-72
2022/03/08 06:25:07;;;;;;;3.35;1.88;;;;;;;19.08;23.95;101926.13;7314172;19;130271;-73
2022/03/08 06:27:33;;;;;;;2.92;1.35;;;;;;;19.11;23.83;101928.47;7317295;19;130102;-72
2022/03/08 06:30:00;;;;;;;3.17;1.60;;;;;;;19.15;23.87;101926.09;7312950;19;129584;-73
2022/03/08 06:32:27;;;;;;;5.43;1.70;;;;;;;19.20;24.11;101929.88;7316254;19;129892;-73
2022/03/08 06:34:54;;;;;;;2.47;1.70;;;;;;;19.26;23.94;101933.72;7315714;19;130135;-72
2022/03/08 06:37:21;;;;;;;8.75;2.70;;;;;;;19.30;23.74;101937.75;7315421;19;133261;-73
2022/03/08 06:39:48;;;;;;;4.28;1.77;;;;;;;19.34;24.04;101933.41;7315933;19;130123;-71
2022/03/08 06:42:16;;;;;;;6.72;2.25;;;;;;;19.35;23.62;101932.34;7313610;19;129430;-72
2022/03/08 06:44:43;;;;;;;2.78;1.70;;;;;;;19.37;23.59;101935.75;7315361;19;130329;-73
2022/03/08 06:47:10;;;;;;;5.38;1.90;;;;;;;19.38;23.96;101931.06;7312917;19;130819;-73
2022/03/08 06:49:39;;;;;;;4.20;1.60;;;;;;;19.38;23.55;101931.91;7312592;19;131057;-74
2022/03/08 06:52:07;;;;;;;4.82;1.48;;;;;;;19.37;24.04;101944.06;7315081;19;128938;-74
2022/03/08 06:54:35;;;;;;;4.10;2.17;;;;;;;19.36;23.84;101947.91;7313157;19;129573;-73
2022/03/08 06:57:02;;;;;;;5.45;1.85;;;;;;;19.35;24.00;101939.81;7317630;19;130877;-73
2022/03/08 06:59:30;;;;;;;4.97;1.85;;;;;;;19.33;23.83;101942.81;7316316;19;131133;-73
2022/03/08 07:01:56;;;;;;;7.38;1.75;;;;;;;19.32;24.23;101943.03;7315171;19;129173;-73
2022/03/08 07:04:24;;;;;;;6.38;2.13;;;;;;;19.31;23.86;101936.66;7312334;19;129817;-73
2022/03/08 07:06:54;;;;;;;3.42;1.85;;;;;;;19.28;23.83;101937.09;7312971;19;130172;-73
2022/03/08 07:09:21;;;;;;;5.72;1.98;;;;;;;19.27;24.04;101935.41;7314055;19;129386;-74
2022/03/08 07:11:48;;;;;;;5.82;1.65;;;;;;;19.26;24.10;101933.72;7313580;19;130666;-72
2022/03/08 07:14:17;;;;;;;4.75;1.77;;;;;;;19.25;24.07;101942.25;7314194;19;130509;-73
2022/03/08 07:16:45;;;;;;;3.28;1.60;;;;;;;19.24;23.95;101946.13;7315788;19;129469;-73
2022/03/08 07:19:13;;;;;;;5.97;1.67;;;;;;;19.22;24.04;101949.09;7315284;19;129887;-73
2022/03/08 07:21:41;;;;;;;2.38;1.80;;;;;;;19.21;24.06;101948.25;7315495;19;128805;-73
2022/03/08 07:24:07;;;;;;;1.98;1.63;;;;;;;19.21;23.96;101950.16;7316322;19;129017;-73
2022/03/08 07:26:34;;;;;;;4.70;2.05;;;;;;;19.21;23.87;101947.38;7313852;19;129646;-74
2022/03/08 07:29:01;;;;;;;4.57;1.55;;;;;;;19.20;24.15;101945.69;7315542;19;129808;-74
2022/03/08 07:31:28;;;;;;;3.92;1.70;;;;;;;19.19;24.23;101946.75;7313012;19;129021;-73
2022/03/08 07:33:55;;;;;;;3.97;1.90;;;;;;;19.17;24.24;101946.13;7314013;19;129604;-74
2022/03/08 07:36:22;;;;;;;4.18;1.85;;;;;;;19.16;24.26;101944.44;7316436;19;130162;-74
2022/03/08 07:38:49;;;;;;;7.43;2.08;;;;;;;19.14;23.81;101941.03;7313158;19;129478;-73
2022/03/08 07:41:16;;;;;;;8.15;1.90;;;;;;;19.13;24.04;101944.88;7315053;19;130204;-73
2022/03/08 07:43:43;;;;;;;3.00;1.60;;;;;;;19.11;24.34;101952.56;7313377;19;129432;-73
2022/03/08 07:46:10;;;;;;;4.03;1.70;;;;;;;19.09;23.95;101963.91;7314397;19;129676;-73
2022/03/08 07:48:38;;;;;;;7.13;1.95;;;;;;;19.08;24.37;101962.19;7315460;19;129555;-72
2022/03/08 07:51:04;;;;;;;3.97;1.80;;;;;;;19.08;24.20;101964.97;7313774;19;129120;-73
2022/03/08 07:53:31;;;;;;;3.08;1.90;;;;;;;19.05;24.38;101969.03;7315601;19;129231;-73
2022/03/08 07:55:58;;;;;;;2.63;1.40;;;;;;;19.04;23.97;101970.13;7314936;19;130003;-73
2022/03/08 07:58:25;;;;;;;3.40;1.70;;;;;;;19.07;24.30;101968.81;7313243;19;129462;-73
2022/03/08 08:00:52;;;;;;;4.63;1.92;;;;;;;19.17;24.03;101973.88;7312950;19;128966;-73
2022/03/08 08:03:19;;;;;;;15.43;2.15;;;;;;;19.37;23.97;101974.59;7313737;19;129356;-73
2022/03/08 08:05:46;;;;;;;5.45;1.80;;;;;;;19.95;23.36;101974.50;7311953;19;131104;-73
2022/03/08 08:08:12;;;;;;;4.32;1.65;;;;;;;21.26;22.17;101989.09;7313766;19;130072;-74
2022/03/08 08:10:39;;;;;;;3.15;1.85;;;;;;;23.31;20.09;101980.75;7314045;19;130380;-73
2022/03/08 08:13:06;;;;;;;6.28;1.90;;;;;;;24.71;19.11;101979.97;7315191;19;129015;-74
2022/03/08 08:15:36;;;;;;;4.68;1.92;;;;;;;25.92;17.91;101982.44;7311860;19;130328;-73
2022/03/08 08:18:09;;;;;;;3.20;1.70;;;;;;;26.89;17.29;101983.19;7313463;19;129023;-73
2022/03/08 08:20:36;;;;;;;3.08;1.63;;;;;;;27.65;16.78;101980.69;7315385;19;128833;-73
2022/03/08 08:23:03;;;;;;;4.43;1.70;;;;;;;28.27;15.72;101977.72;7312901;19;129420;-73
2022/03/08 08:25:30;;;;;;;3.75;1.83;;;;;;;28.78;15.24;101976.66;7314408;19;131265;-73
2022/03/08 08:27:56;;;;;;;4.28;1.67;;;;;;;29.20;15.08;101982.03;7309959;19;130738;-72
2022/03/08 08:30:23;;;;;;;8.38;1.88;;;;;;;29.55;14.64;101980.00;7313337;19;129307;-72
2022/03/08 08:32:50;;;;;;;5.43;1.67;;;;;;;29.83;14.54;101974.69;7311271;19;128928;-73
2022/03/08 08:35:18;;;;;;;4.68;1.60;;;;;;;30.10;14.01;101976.09;7312355;19;130726;-72
2022/03/08 08:37:45;;;;;;;6.55;2.05;;;;;;;30.34;13.60;101976.13;7313622;19;129620;-72
2022/03/08 08:40:12;;;;;;;1.80;1.35;;;;;;;30.38;13.89;101972.38;7310931;19;129298;-72
2022/03/08 08:42:39;;;;;;;5.93;1.75;;;;;;;30.13;13.75;101975.50;7312497;19;129146;-71
2022/03/08 08:45:07;;;;;;;2.25;1.67;;;;;;;29.37;14.12;101970.31;7311168;19;129593;-71
2022/03/08 08:47:33;;;;;;;3.67;1.80;;;;;;;27.76;15.25;101967.47;7311698;19;130449;-70
2022/03/08 08:50:00;;;;;;;3.08;1.50;;;;;;;26.52;15.96;101970.13;7313935;19;128927;-70
2022/03/08 08:52:27;;;;;;;2.47;1.48;;;;;;;25.56;16.79;101972.97;7309878;19;128798;-70
2022/03/08 08:54:54;;;;;;;4.15;1.40;;;;;;;24.74;17.32;101962.63;7312953;19;131778;-70
2022/03/08 08:57:20;;;;;;;4.88;1.50;;;;;;;24.04;17.50;101968.78;7313576;19;129926;-70
2022/03/08 08:59:47;;;;;;;3.85;1.50;;;;;;;23.46;18.57;101970.94;7310901;19;129303;-70
2022/03/08 09:02:14;;;;;;;2.30;1.50;;;;;;;22.99;18.54;101972.06;7312834;19;128947;-70
2022/03/08 09:04:41;;;;;;;5.03;1.60;;;;;;;22.55;19.25;101969.81;7310962;19;130195;-69
2022/03/08 09:07:08;;;;;;;2.35;1.48;;;;;;;22.18;19.60;101958.97;7310397;19;129825;-69
2022/03/08 09:09:35;;;;;;;2.17;1.60;;;;;;;21.86;20.07;101965.78;7313807;19;129733;-69
2022/03/08 09:12:01;;;;;;;3.45;1.70;;;;;;;21.58;20.36;101955.38;7309882;19;129276;-70
2022/03/08 09:14:28;;;;;;;3.70;1.90;;;;;;;21.34;20.36;101958.13;7310839;19;129630;-69
2022/03/08 09:16:55;;;;;;;3.63;1.60;;;;;;;21.12;20.43;101961.47;7312631;19;129806;-68
2022/03/08 09:19:23;;;;;;;3.15;1.70;;;;;;;20.93;20.80;101957.06;7317697;19;128936;-68
2022/03/08 09:21:49;;;;;;;3.90;1.75;;;;;;;20.76;21.27;101949.41;7319444;19;129693;-68
2022/03/08 09:24:16;;;;;;;2.30;1.50;;;;;;;20.60;21.22;101945.31;7316956;19;129613;-69
2022/03/08 09:26:43;;;;;;;3.25;1.80;;;;;;;20.47;21.28;101946.31;7317500;19;129553;-68
2022/03/08 09:29:10;;;;;;;3.63;1.80;;;;;;;20.35;21.58;101948.19;7319188;19;129186;-68
2022/03/08 09:31:37;;;;;;;3.60;1.63;;;;;;;20.22;21.71;101938.94;7317046;19;129795;-69
2022/03/08 09:34:04;;;;;;;4.70;1.80;;;;;;;20.12;21.71;101935.88;7319091;19;129535;-69
2022/03/08 09:36:31;;;;;;;3.53;1.60;;;;;;;20.02;21.49;101933.63;7315958;19;130176;-69
2022/03/08 09:38:58;;;;;;;2.08;1.52;;;;;;;19.90;21.58;101939.09;7317233;19;129480;-69
2022/03/08 09:41:25;;;;;;;3.47;1.58;;;;;;;19.82;21.69;101933.81;7318359;19;131186;-69
2022/03/08 09:43:54;;;;;;;3.17;1.88;;;;;;;19.75;21.65;101935.81;7316221;19;130522;-69
2022/03/08 09:46:21;;;;;;;6.07;2.10;;;;;;;19.65;21.70;101926.09;7317169;19;130447;-70
2022/03/08 09:48:48;;;;;;;3.67;1.90;;;;;;;19.56;22.01;101921.94;7317070;19;129015;-69
2022/03/08 09:51:16;;;;;;;2.65;1.85;;;;;;;19.50;22.21;101932.00;7316234;19;129212;-69
2022/03/08 09:53:44;;;;;;;3.50;1.92;;;;;;;19.44;21.86;101938.47;7318146;19;129622;-70
2022/03/08 09:56:11;;;;;;;2.67;1.80;;;;;;;19.40;22.25;101928.03;7315301;19;129580;-70
2022/03/08 09:58:40;;;;;;;4.05;1.58;;;;;;;19.34;21.98;101929.81;7317074;19;129834;-70
2022/03/08 10:01:07;;;;;;;5.28;1.67;;;;;;;19.28;22.22;101927.91;7315904;19;129495;-70
2022/03/08 10:03:40;;;;;;;5.32;2.30;;;;;;;19.22;22.29;101921.34;7315408;19;130500;-72
2022/03/08 10:06:08;;;;;;;3.88;2.10;;;;;;;19.18;22.39;101920.09;7317910;19;129485;-71
2022/03/08 10:08:36;;;;;;;2.90;1.63;;;;;;;19.13;22.19;101933.78;7315428;19;129315;-71
2022/03/08 10:11:14;;;;;;;3.70;1.77;;;;;;;19.08;22.13;101932.53;7316821;19;129059;-72
2022/03/08 10:13:50;;;;;;;6.20;1.63;;;;;;;19.03;22.33;101920.41;7317164;19;131476;-71
2022/03/08 10:16:26;;;;;;;6.60;2.22;;;;;;;19.00;22.46;101918.94;7314526;19;129423;-71
2022/03/08 10:19:04;;;;;;;3.38;1.75;;;;;;;18.96;22.32;101911.28;7316641;19;128841;-71
2022/03/08 10:21:36;;;;;;;;;;;;;;;18.87;22.17;101913.47;7318665;19;129051;-71
2022/03/08 10:24:23;;;;;;;3.85;1.90;;;;;;;18.86;22.18;101906.25;7315822;19;129952;-71
2022/03/08 10:27:03;;;;;;;3.58;2.00;;;;;;;18.81;22.68;101912.47;7316676;19;130175;-71
2022/03/08 10:29:35;;;;;;;2.95;1.83;;;;;;;18.77;22.36;101909.28;7315489;19;129338;-72
2022/03/08 10:32:16;;;;;;;2.95;1.70;;;;;;;18.74;22.23;101914.44;7316705;19;129453;-72
2022/03/08 10:34:45;;;;;;;3.70;1.83;;;;;;;18.69;22.19;101909.56;7318216;19;130738;-72
2022/03/08 10:37:19;;;;;;;3.15;1.80;;;;;;;18.67;22.66;101908.94;7314105;19;129577;-73
2022/03/08 10:40:00;;;;;;;3.17;1.85;;;;;;;18.63;22.22;101907.66;7316711;19;130454;-73
2022/03/08 10:42:30;;;;;;;2.58;1.88;;;;;;;18.61;22.66;101899.59;7317029;19;129357;-72
2022/03/08 10:45:14;;;;;;;2.58;1.60;;;;;;;18.57;22.30;101901.09;7314772;19;129960;-71
2022/03/08 10:47:42;;;;;;;3.63;1.60;;;;;;;18.55;22.37;101899.63;7317858;19;129353;-71
2022/03/08 10:50:12;;;;;;;2.85;1.80;;;;;;;18.53;22.27;101904.53;7317379;19;129009;-73
2022/03/08 10:52:41;;;;;;;4.95;2.00;;;;;;;18.52;22.25;101900.06;7315066;19;128924;-72
2022/03/08 10:55:23;;;;;;;3.80;1.50;;;;;;;18.50;22.60;101900.28;7316578;19;129932;-72
2022/03/08 10:57:59;;;;;;;3.00;2.08;;;;;;;18.48;22.33;101887.72;7314649;19;129661;-73
2022/03/08 11:00:28;;;;;;;2.05;1.65;;;;;;;18.44;22.48;101890.09;7314937;19;129421;-74
2022/03/08 11:02:57;;;;;;;2.35;1.65;;;;;;;18.42;22.71;101895.84;7316199;19;129085;-73
2022/03/08 11:05:32;;;;;;;2.70;1.83;;;;;;;18.40;22.33;101891.63;7314045;19;129641;-72
2022/03/08 11:07:58;;;;;;;1.95;1.42;;;;;;;18.37;22.36;101892.00;7315120;19;129946;-73
2022/03/08 11:10:27;;;;;;;1.80;1.67;;;;;;;18.35;22.56;101883.91;7316363;19;129318;-73
2022/03/08 11:12:55;;;;;;;3.70;1.88;;;;;;;18.33;22.58;101891.63;7313981;19;129281;-73
2022/03/08 11:15:23;;;;;;;2.50;1.80;;;;;;;18.31;22.51;101882.66;7315942;19;130596;-73
2022/03/08 11:17:53;;;;;;;1.85;1.48;;;;;;;18.30;22.36;101886.50;7316020;19;129562;-73
2022/03/08 11:20:22;;;;;;;3.33;1.80;;;;;;;18.29;22.54;101884.81;7314404;19;128809;-73